Time;durP1;ratioP1;P1;durP2;ratioP2;P2;SDS_P1;SDS_P2;PMS_P1;PMS_P2;Temp;Humidity;BMP_temperature;BMP_pressure;BME280_temperature;BME280_humidity;BME280_pressure;Samples;Min_cycle;Max_cycle;Signal;HPM_P1;HPM_P2
2022/09/19 00:01:12;;;;;;;3.70;3.40;;;;;;;7.85;89.88;93760.90;1603727;87;21191;-60
2022/09/19 00:03:43;;;;;;;5.20;4.50;;;;;;;7.89;89.98;93753.30;1602981;88;21002;-59
2022/09/19 00:06:11;;;;;;;3.90;3.55;;;;;;;7.92;89.90;93757.86;1625882;87;21023;-57
2022/09/19 00:08:40;;;;;;;5.70;4.78;;;;;;;7.98;89.96;93765.65;1628005;87;21092;-59
2022/09/19 00:11:09;;;;;;;5.10;4.28;;;;;;;8.03;90.06;93758.20;1582602;89;21017;-58
2022/09/19 00:13:41;;;;;;;8.88;4.80;;;;;;;8.04;90.11;93748.77;1626974;86;20966;-56
2022/09/19 00:16:08;;;;;;;7.40;5.65;;;;;;;8.07;90.45;93757.44;1624972;87;21462;-57
2022/09/19 00:18:36;;;;;;;8.68;4.95;;;;;;;8.10;90.28;93758.51;1627096;87;20990;-57
2022/09/19 00:21:05;;;;;;;8.48;4.72;;;;;;;8.11;90.29;93746.34;1623965;87;21167;-57
2022/09/19 00:26:17;;;;;;;3.80;3.50;;;;;;;8.23;90.07;93742.11;1626771;86;21506;-57
2022/09/19 00:28:45;;;;;;;3.30;3.00;;;;;;;8.24;89.80;93751.10;1625802;87;21065;-56
2022/09/19 00:31:18;;;;;;;3.30;3.10;;;;;;;8.20;89.68;93751.24;1604112;88;21050;-57
2022/09/19 00:33:46;;;;;;;;;;;;;;;8.24;89.81;93742.27;1627615;87;21218;-57
2022/09/19 00:36:14;;;;;;;3.08;2.77;;;;;;;8.28;89.38;93746.23;1626270;87;20401;-57
2022/09/19 00:38:43;;;;;;;2.60;2.40;;;;;;;8.26;89.16;93745.30;1625766;87;21178;-57
2022/09/19 00:41:16;;;;;;;3.65;2.50;;;;;;;8.26;89.10;93744.55;1626486;87;21069;-57
2022/09/19 00:43:51;;;;;;;2.80;2.60;;;;;;;8.33;89.14;93744.24;1625215;88;20963;-56
2022/09/19 00:46:18;;;;;;;2.95;2.75;;;;;;;8.43;88.53;93743.78;1579475;89;21241;-56
2022/09/19 00:48:49;;;;;;;2.80;2.60;;;;;;;8.53;87.81;93737.69;1626042;87;21172;-60
2022/09/19 00:51:21;;;;;;;2.80;2.27;;;;;;;8.55;86.67;93737.98;1625460;87;21053;-56
2022/09/19 00:53:48;;;;;;;2.40;2.30;;;;;;;8.56;86.40;93738.91;1625766;87;20999;-58
2022/09/19 00:56:18;;;;;;;2.35;2.25;;;;;;;8.57;85.96;93739.66;1626494;87;20989;-57
2022/09/19 00:58:45;;;;;;;2.40;2.20;;;;;;;8.55;85.71;93738.77;1625288;87;21848;-56
2022/09/19 01:01:13;;;;;;;2.40;2.20;;;;;;;8.55;85.67;93728.39;1624350;87;21021;-57
2022/09/19 01:03:40;;;;;;;3.60;2.85;;;;;;;8.57;85.47;93732.21;1552259;90;21032;-58
2022/09/19 01:06:46;;;;;;;4.08;2.22;;;;;;;8.65;84.89;93723.81;1577203;90;20998;-57
2022/09/19 01:09:39;;;;;;;2.20;2.10;;;;;;;8.73;84.12;93714.66;1626575;87;21120;-57
2022/09/19 01:12:17;;;;;;;2.20;2.10;;;;;;;8.79;83.48;93724.55;1580450;89;21248;-57
2022/09/19 01:14:58;;;;;;;2.20;2.10;;;;;;;8.86;82.86;93722.11;1623950;87;21086;-55
2022/09/19 01:17:47;;;;;;;2.40;2.20;;;;;;;8.83;82.45;93726.52;1626598;87;21493;-56
2022/09/19 01:20:36;;;;;;;2.62;2.42;;;;;;;8.75;82.35;93726.70;1578138;89;21056;-58
2022/09/19 01:23:32;;;;;;;2.65;2.27;;;;;;;8.68;82.26;93716.06;1624769;87;21073;-56
2022/09/19 01:26:11;;;;;;;2.62;2.42;;;;;;;8.69;82.20;93725.03;1624129;87;21179;-56
2022/09/19 01:28:46;;;;;;;2.30;2.20;;;;;;;8.69;81.86;93716.21;1625516;87;21022;-58
2022/09/19 01:31:27;;;;;;;2.40;2.30;;;;;;;8.68;81.95;93715.29;1573755;89;21013;-58
2022/09/19 01:34:24;;;;;;;2.17;2.08;;;;;;;8.61;81.91;93712.25;1574926;89;21596;-57
2022/09/19 01:37:09;;;;;;;3.00;2.70;;;;;;;8.57;82.03;93708.91;1525731;92;21066;-56
2022/09/19 01:39:39;;;;;;;2.50;2.40;;;;;;;8.51;82.13;93709.38;1565469;89;21216;-57
2022/09/19 01:42:06;;;;;;;3.08;2.87;;;;;;;8.47;82.23;93717.60;1570547;88;21120;-56
2022/09/19 01:44:34;;;;;;;2.95;2.75;;;;;;;8.41;82.30;93720.19;1624761;88;21095;-56
2022/09/19 01:47:18;;;;;;;3.12;2.80;;;;;;;8.40;82.26;93709.08;1576979;89;21222;-57
2022/09/19 01:50:17;;;;;;;2.95;2.72;;;;;;;8.39;82.21;93717.15;1578361;89;21153;-57
2022/09/19 01:53:11;;;;;;;4.10;2.85;;;;;;;8.38;82.31;93718.96;1575501;89;21222;-57
2022/09/19 01:56:07;;;;;;;3.25;3.05;;;;;;;8.36;82.11;93723.55;1625634;87;21072;-56
2022/09/19 01:59:14;;;;;;;3.50;3.17;;;;;;;8.32;81.88;93722.95;1625988;87;21089;-59
2022/09/19 02:01:52;;;;;;;3.42;3.10;;;;;;;8.30;82.01;93726.75;1625433;87;21006;-58
2022/09/19 02:04:28;;;;;;;3.25;2.95;;;;;;;8.31;82.16;93728.87;1624494;86;21562;-57
2022/09/19 02:07:02;;;;;;;3.20;3.00;;;;;;;8.32;82.47;93722.17;1605565;88;21818;-57
2022/09/19 02:09:43;;;;;;;6.47;3.40;;;;;;;8.31;82.40;93725.53;1573852;89;21536;-56
2022/09/19 02:12:10;;;;;;;4.22;3.80;;;;;;;8.26;82.44;93727.49;1627560;87;21044;-57
2022/09/19 02:14:38;;;;;;;3.45;3.00;;;;;;;8.13;82.48;93728.23;1628217;87;21245;-57
2022/09/19 02:17:09;;;;;;;3.20;3.00;;;;;;;8.03;82.89;93728.06;1625412;87;21089;-58
2022/09/19 02:19:54;;;;;;;4.00;3.60;;;;;;;7.97;83.11;93729.13;1627180;87;21176;-59
2022/09/19 02:22:32;;;;;;;4.83;3.10;;;;;;;7.83;83.24;93730.48;1627391;87;21057;-57
2022/09/19 02:25:07;;;;;;;4.80;3.40;;;;;;;7.74;83.85;93726.96;1626793;87;20982;-59
2022/09/19 02:27:49;;;;;;;3.65;3.35;;;;;;;7.70;83.99;93722.98;1626628;87;21073;-57
2022/09/19 02:30:20;;;;;;;4.08;3.50;;;;;;;7.67;83.99;93733.48;1620577;87;21014;-58
2022/09/19 02:32:49;;;;;;;5.30;3.02;;;;;;;7.62;84.20;93725.88;1624070;87;26514;-55
2022/09/19 02:35:36;;;;;;;4.47;4.08;;;;;;;7.60;84.09;93727.53;1626521;87;21092;-56
2022/09/19 02:38:34;;;;;;;3.87;3.58;;;;;;;7.57;84.26;93733.32;1626290;87;21199;-57
2022/09/19 02:41:06;;;;;;;7.95;4.08;;;;;;;7.54;84.46;93738.30;1602847;87;21101;-57
2022/09/19 02:44:19;;;;;;;4.58;4.17;;;;;;;7.45;84.67;93735.55;1579390;89;21037;-55
2022/09/19 02:47:02;;;;;;;3.47;3.25;;;;;;;7.34;85.42;93739.30;1626546;87;22081;-56
2022/09/19 02:49:42;;;;;;;5.37;3.37;;;;;;;7.22;85.33;93736.67;1626252;87;21085;-57
2022/09/19 02:52:15;;;;;;;3.47;3.20;;;;;;;7.13;85.91;93730.56;1624812;87;21060;-57
2022/09/19 02:54:46;;;;;;;5.25;3.25;;;;;;;7.08;86.01;93737.22;1617067;87;21106;-57
2022/09/19 02:57:13;;;;;;;3.75;3.42;;;;;;;7.01;86.16;93736.13;1624076;86;21081;-57
2022/09/19 02:59:42;;;;;;;3.90;3.60;;;;;;;6.98;86.52;93737.03;1603380;88;22364;-56
2022/09/19 03:02:24;;;;;;;5.03;3.60;;;;;;;6.99;86.61;93730.94;1625854;87;20986;-56
2022/09/19 03:04:55;;;;;;;9.40;4.67;;;;;;;7.00;86.66;93732.47;1625892;87;21121;-58
2022/09/19 03:07:32;;;;;;;6.50;5.00;;;;;;;6.99;86.58;93742.66;1623599;87;21158;-58
2022/09/19 03:10:09;;;;;;;4.75;4.35;;;;;;;6.94;86.36;93743.83;1625183;86;21030;-57
2022/09/19 03:13:02;;;;;;;5.47;4.12;;;;;;;6.91;86.90;93746.10;1623181;87;22002;-57
2022/09/19 03:15:47;;;;;;;4.25;3.85;;;;;;;6.92;86.89;93751.72;1577238;90;20991;-56
2022/09/19 03:18:16;;;;;;;4.37;3.98;;;;;;;6.87;86.62;93740.02;1572546;89;21127;-58
2022/09/19 03:20:49;;;;;;;6.30;4.60;;;;;;;6.82;86.48;93748.77;1589130;89;21524;-57
2022/09/19 03:23:20;;;;;;;6.87;4.10;;;;;;;6.72;86.64;93759.50;1624797;87;21021;-56
2022/09/19 03:25:47;;;;;;;4.90;4.47;;;;;;;6.64;86.94;93756.86;1625465;87;21224;-57
2022/09/19 03:28:19;;;;;;;5.50;4.17;;;;;;;6.56;86.93;93751.50;1626987;87;21011;-56
2022/09/19 03:30:43;;;;;;;8.13;5.40;;;;;;;6.44;87.03;93751.73;1626959;87;20994;-56
2022/09/19 03:33:17;;;;;;;4.95;4.50;;;;;;;6.33;87.19;93754.68;1626021;87;21109;-57
2022/09/19 03:35:39;;;;;;;5.00;3.92;;;;;;;6.27;87.75;93755.84;1624495;87;20962;-58
2022/09/19 03:38:06;;;;;;;3.67;3.37;;;;;;;6.27;88.12;93753.70;1626682;87;21153;-57
2022/09/19 03:40:34;;;;;;;3.50;3.30;;;;;;;6.26;88.13;93747.49;1572988;89;21060;-56
2022/09/19 03:43:01;;;;;;;3.50;3.20;;;;;;;6.26;88.21;93762.52;1579822;88;21516;-57
2022/09/19 03:45:28;;;;;;;4.78;3.85;;;;;;;6.24;88.41;93761.42;1575392;89;21037;-56
2022/09/19 03:47:55;;;;;;;4.20;3.25;;;;;;;6.26;88.55;93754.91;1580326;89;21008;-57
2022/09/19 03:50:23;;;;;;;4.58;3.60;;;;;;;6.27;88.33;93763.26;1578811;89;21336;-57
2022/09/19 03:53:00;;;;;;;4.58;4.05;;;;;;;6.26;88.50;93749.45;1578839;89;21234;-58
2022/09/19 03:55:27;;;;;;;4.15;3.75;;;;;;;6.26;88.40;93754.91;1629252;86;21561;-56
2022/09/19 03:57:54;;;;;;;4.47;3.90;;;;;;;6.18;88.03;93750.91;1583972;89;21100;-57
2022/09/19 04:00:22;;;;;;;4.75;4.35;;;;;;;6.08;88.22;93754.76;1623256;87;21017;-57
2022/09/19 04:02:49;;;;;;;5.30;4.00;;;;;;;6.02;88.72;93752.44;1625718;87;21236;-56
2022/09/19 04:05:16;;;;;;;6.85;4.17;;;;;;;6.01;88.85;93752.28;1603435;88;21111;-57
2022/09/19 04:07:43;;;;;;;6.37;5.08;;;;;;;5.98;88.80;93750.44;1625263;87;21259;-58
2022/09/19 04:10:11;;;;;;;9.63;5.12;;;;;;;5.91;88.84;93749.30;1624877;87;21132;-56
2022/09/19 04:12:40;;;;;;;5.28;4.78;;;;;;;5.86;89.52;93745.19;1617402;87;21033;-57
2022/09/19 04:15:08;;;;;;;5.95;4.28;;;;;;;5.90;89.90;93744.45;1626479;87;22180;-57
2022/09/19 04:17:36;;;;;;;5.08;4.58;;;;;;;5.97;90.18;93746.19;1624477;87;21093;-57
2022/09/19 04:20:09;;;;;;;4.42;4.12;;;;;;;6.04;90.05;93737.75;1626890;87;21557;-58
2022/09/19 04:22:50;;;;;;;4.20;3.80;;;;;;;6.10;90.04;93748.25;1578386;89;21009;-57
2022/09/19 04:25:23;;;;;;;4.50;4.12;;;;;;;6.13;89.66;93739.20;1578473;89;21108;-57
2022/09/19 04:28:02;;;;;;;6.28;5.30;;;;;;;6.07;89.54;93743.09;1538546;90;22099;-58
2022/09/19 04:30:26;;;;;;;6.62;5.95;;;;;;;6.02;89.75;93740.16;1583480;88;20985;-58
2022/09/19 04:32:55;;;;;;;6.53;5.97;;;;;;;6.04;90.35;93747.30;1578937;89;21540;-56
2022/09/19 04:35:22;;;;;;;7.22;6.47;;;;;;;6.08;90.54;93743.84;1572881;87;21123;-57
2022/09/19 04:37:49;;;;;;;8.30;6.15;;;;;;;6.13;90.72;93751.48;1629165;87;21080;-57
2022/09/19 04:40:18;;;;;;;9.25;7.35;;;;;;;6.15;90.85;93751.19;1627189;87;21119;-56
2022/09/19 04:42:46;;;;;;;12.90;7.42;;;;;;;6.13;90.85;93758.31;1625687;87;21038;-56
2022/09/19 04:45:20;;;;;;;8.88;7.85;;;;;;;6.12;91.11;93762.25;1625515;87;21521;-58
2022/09/19 04:47:46;;;;;;;11.65;9.45;;;;;;;6.11;91.49;93774.34;1605465;88;21046;-59
2022/09/19 04:50:15;;;;;;;9.58;8.58;;;;;;;6.12;91.60;93764.98;1626537;87;22282;-60
2022/09/19 04:52:43;;;;;;;9.45;8.53;;;;;;;6.13;91.84;93773.33;1624971;87;21346;-57
2022/09/19 04:55:10;;;;;;;16.52;10.10;;;;;;;6.19;92.16;93774.28;1625250;87;21037;-55
2022/09/19 04:57:37;;;;;;;9.48;8.18;;;;;;;6.23;92.06;93767.50;1629790;87;21005;-55
2022/09/19 05:00:07;;;;;;;11.25;8.53;;;;;;;6.27;92.09;93770.09;1625359;87;21135;-61
2022/09/19 05:02:35;;;;;;;9.95;7.62;;;;;;;6.39;92.41;93778.25;1625449;87;21029;-58
2022/09/19 05:05:02;;;;;;;11.28;8.85;;;;;;;6.50;92.48;93779.98;1627784;86;21148;-59
2022/09/19 05:07:33;;;;;;;11.85;8.30;;;;;;;6.58;92.38;93791.43;1626069;87;20977;-61
2022/09/19 05:09:58;;;;;;;13.53;8.40;;;;;;;6.67;92.42;93787.41;1626964;87;20982;-60
2022/09/19 05:12:28;;;;;;;13.32;8.90;;;;;;;6.78;92.60;93782.31;1619761;87;21049;-59
2022/09/19 05:14:55;;;;;;;8.55;7.67;;;;;;;6.88;92.34;93777.81;1604519;87;21613;-61
2022/09/19 05:17:23;;;;;;;9.58;8.00;;;;;;;7.04;92.50;93779.59;1628856;87;21312;-59
2022/09/19 05:19:50;;;;;;;10.90;9.23;;;;;;;7.20;92.26;93773.29;1631553;86;21048;-58
2022/09/19 05:22:16;;;;;;;15.55;10.48;;;;;;;7.32;92.12;93766.35;1623906;87;20974;-59
2022/09/19 05:24:45;;;;;;;20.97;14.50;;;;;;;7.46;91.92;93756.82;1625453;87;21038;-58
2022/09/19 05:27:12;;;;;;;35.60;25.23;;;;;;;7.61;91.84;93759.94;1641789;86;21462;-59
2022/09/19 05:29:41;;;;;;;32.30;23.40;;;;;;;7.77;91.22;93754.20;1628923;86;21335;-58
2022/09/19 05:32:08;;;;;;;25.90;19.30;;;;;;;7.92;90.53;93756.48;1647481;85;21251;-59
2022/09/19 05:34:35;;;;;;;29.35;21.95;;;;;;;8.09;89.84;93755.00;1615330;87;21081;-62
2022/09/19 05:37:02;;;;;;;19.25;14.80;;;;;;;8.23;89.11;93762.66;1623885;87;21041;-59
2022/09/19 05:39:43;;;;;;;22.93;15.90;;;;;;;8.36;88.92;93764.65;1615904;88;21514;-60
2022/09/19 05:42:23;;;;;;;18.52;15.45;;;;;;;8.46;88.67;93768.90;1649680;85;21348;-60
2022/09/19 05:44:54;;;;;;;19.85;14.73;;;;;;;8.56;88.23;93782.77;1651897;86;21217;-58
2022/09/19 05:47:19;;;;;;;14.45;9.78;;;;;;;8.66;87.90;93781.53;1628859;86;21288;-59
2022/09/19 05:49:46;;;;;;;11.45;8.23;;;;;;;8.79;87.11;93781.39;1646494;86;21027;-58
2022/09/19 05:54:59;;;;;;;8.50;7.65;;;;;;;9.04;85.61;93791.42;1570479;90;21224;-60
2022/09/19 05:57:42;;;;;;;9.80;8.13;;;;;;;9.25;84.50;93787.71;1600292;87;21205;-61
2022/09/19 06:00:11;;;;;;;12.28;8.25;;;;;;;9.48;84.06;93796.63;1588145;87;22295;-61
2022/09/19 06:02:41;;;;;;;13.50;9.33;;;;;;;9.63;83.61;93790.63;1646341;85;21131;-59
2022/09/19 06:05:10;;;;;;;20.10;11.53;;;;;;;9.77;83.72;93792.72;1627116;85;21021;-60
2022/09/19 06:07:40;;;;;;;13.85;10.48;;;;;;;9.92;83.45;93789.41;1629458;85;21586;-59
2022/09/19 06:10:08;;;;;;;15.28;10.60;;;;;;;10.09;83.35;93794.70;1646972;85;21244;-60
2022/09/19 06:12:36;;;;;;;16.75;11.18;;;;;;;10.20;82.50;93800.45;1640380;85;22337;-58
2022/09/19 06:15:04;;;;;;;22.30;11.35;;;;;;;10.25;81.76;93795.67;1630999;86;21459;-59
2022/09/19 06:17:30;;;;;;;17.60;12.63;;;;;;;10.38;81.15;93803.83;1644265;85;21082;-65
2022/09/19 06:19:59;;;;;;;16.65;11.22;;;;;;;10.49;79.78;93801.95;1642016;86;21117;-58
2022/09/19 06:22:29;;;;;;;10.50;8.33;;;;;;;10.59;78.86;93797.89;1666345;85;20969;-57
2022/09/19 06:24:56;;;;;;;14.63;9.20;;;;;;;10.68;77.56;93793.72;1652479;85;21133;-61
2022/09/19 06:27:23;;;;;;;7.35;5.58;;;;;;;10.83;77.17;93795.26;1645631;86;21104;-57
2022/09/19 06:29:50;;;;;;;9.83;6.47;;;;;;;10.94;76.38;93800.34;1643838;85;21222;-59
2022/09/19 06:32:20;;;;;;;8.13;5.58;;;;;;;11.06;76.24;93792.45;1638068;86;21278;-60
2022/09/19 06:34:48;;;;;;;7.87;5.50;;;;;;;11.15;76.25;93793.73;1656988;85;20983;-60
2022/09/19 06:37:15;;;;;;;7.08;4.58;;;;;;;11.19;75.93;93792.17;1665834;85;21129;-62
2022/09/19 06:39:42;;;;;;;11.00;5.15;;;;;;;11.23;71.89;93792.74;1653079;84;21125;-63
2022/09/19 06:42:27;;;;;;;7.03;5.33;;;;;;;11.27;70.94;93798.21;1654518;85;21667;-59
2022/09/19 06:45:12;;;;;;;6.85;4.70;;;;;;;11.37;70.64;93798.25;1647928;84;21278;-61
2022/09/19 06:47:41;;;;;;;5.97;5.15;;;;;;;11.44;71.93;93792.38;1652586;85;21234;-63
2022/09/19 06:50:27;;;;;;;11.18;4.87;;;;;;;11.52;72.58;93790.75;1654214;86;21018;-62
2022/09/19 06:52:56;;;;;;;9.55;5.92;;;;;;;11.60;73.61;93792.53;1652448;84;21061;-61
2022/09/19 06:55:25;;;;;;;5.80;4.20;;;;;;;11.63;71.23;93799.23;1638378;85;21045;-61
2022/09/19 06:57:58;;;;;;;5.20;3.33;;;;;;;11.67;69.03;93802.55;1640328;85;21248;-62
2022/09/19 07:00:27;;;;;;;4.37;3.00;;;;;;;11.77;67.96;93801.22;1643192;85;20974;-60
2022/09/19 07:03:00;;;;;;;2.65;2.45;;;;;;;11.87;66.54;93807.38;1649058;85;21113;-57
2022/09/19 07:05:34;;;;;;;6.87;3.77;;;;;;;11.90;64.57;93809.92;1636325;85;21124;-62
2022/09/19 07:08:18;;;;;;;3.52;1.82;;;;;;;11.92;64.79;93806.70;1566862;89;21580;-62
2022/09/19 07:10:44;;;;;;;3.12;2.37;;;;;;;11.92;62.63;93814.97;1615826;85;21807;-61
2022/09/19 07:13:17;;;;;;;3.95;2.08;;;;;;;11.85;62.58;93821.63;1646192;85;21545;-60
2022/09/19 07:15:46;;;;;;;4.45;3.22;;;;;;;11.84;62.29;93813.22;1657719;85;21043;-57
2022/09/19 07:18:13;;;;;;;19.50;10.63;;;;;;;11.82;63.17;93814.32;1642903;85;20965;-60
2022/09/19 07:20:42;;;;;;;26.87;14.43;;;;;;;11.84;62.82;93808.31;1643476;85;21096;-60
2022/09/19 07:23:18;;;;;;;11.03;6.70;;;;;;;11.82;62.76;93819.83;1645009;85;21244;-60
2022/09/19 07:25:48;;;;;;;62.85;41.13;;;;;;;11.83;62.49;93815.84;1653540;85;21074;-60
2022/09/19 07:28:18;;;;;;;51.18;35.10;;;;;;;11.86;61.43;93814.88;1652910;85;20985;-60
2022/09/19 07:30:46;;;;;;;33.02;21.68;;;;;;;11.84;62.52;93807.70;1648127;85;21068;-62
2022/09/19 07:33:17;;;;;;;16.35;9.50;;;;;;;11.86;63.00;93812.75;1646312;86;20951;-61
2022/09/19 07:35:44;;;;;;;12.20;6.92;;;;;;;11.94;62.94;93815.25;1639723;85;21195;-60
2022/09/19 07:38:16;;;;;;;7.75;5.55;;;;;;;12.01;63.35;93810.10;1649798;85;21074;-60
2022/09/19 07:40:53;;;;;;;6.58;5.20;;;;;;;12.11;64.43;93812.13;1643179;85;21061;-60
2022/09/19 07:43:22;;;;;;;11.68;6.72;;;;;;;12.12;64.59;93809.50;1637452;84;21193;-60
2022/09/19 07:45:57;;;;;;;12.00;7.58;;;;;;;12.14;63.71;93803.66;1629988;85;21262;-63
2022/09/19 07:48:28;;;;;;;13.30;8.83;;;;;;;12.19;63.49;93796.08;1615382;86;22570;-63
2022/09/19 07:51:17;;;;;;;6.55;4.37;;;;;;;12.24;63.30;93806.42;1639783;86;21087;-60
2022/09/19 07:53:43;;;;;;;8.00;5.20;;;;;;;12.23;62.29;93806.29;1638476;85;21091;-60
2022/09/19 07:56:10;;;;;;;9.05;4.92;;;;;;;12.19;62.29;93796.08;1645687;85;21196;-61
2022/09/19 07:58:37;;;;;;;17.70;10.95;;;;;;;12.16;62.36;93812.82;1618911;86;21548;-60
2022/09/19 08:01:05;;;;;;;6.80;3.98;;;;;;;12.13;62.08;93813.17;1650085;84;21439;-60
2022/09/19 08:03:44;;;;;;;5.10;4.33;;;;;;;12.12;60.90;93816.40;1621263;86;21045;-62
2022/09/19 08:06:09;;;;;;;12.55;5.10;;;;;;;12.11;60.88;93806.61;1645585;84;21727;-60
2022/09/19 08:08:37;;;;;;;8.13;4.90;;;;;;;12.10;61.10;93812.73;1643244;84;21179;-64
2022/09/19 08:11:06;;;;;;;12.23;8.15;;;;;;;12.07;60.75;93820.59;1654875;84;21056;-59
2022/09/19 08:13:33;;;;;;;10.95;5.10;;;;;;;12.06;61.34;93819.07;1636385;84;21177;-62
2022/09/19 08:16:01;;;;;;;2.05;1.87;;;;;;;12.12;61.13;93823.30;1647174;85;21049;-61
2022/09/19 08:18:29;;;;;;;5.45;2.95;;;;;;;12.11;60.00;93821.77;1643531;84;21120;-59
2022/09/19 08:20:56;;;;;;;5.25;3.30;;;;;;;12.10;60.40;93823.02;1640387;85;21208;-61
2022/09/19 08:23:23;;;;;;;4.12;2.33;;;;;;;12.15;60.71;93818.97;1649275;85;21062;-61
2022/09/19 08:25:53;;;;;;;5.05;2.30;;;;;;;12.18;59.88;93827.66;1641692;85;21557;-64
2022/09/19 08:28:20;;;;;;;4.92;2.85;;;;;;;12.22;59.65;93827.44;1649772;85;21048;-64
2022/09/19 08:30:49;;;;;;;7.35;3.60;;;;;;;12.35;59.86;93835.55;1641464;84;21094;-61
2022/09/19 08:33:16;;;;;;;3.50;2.70;;;;;;;12.53;59.86;93827.63;1643283;85;21172;-61
2022/09/19 08:35:43;;;;;;;2.20;2.00;;;;;;;12.70;59.71;93834.91;1621032;85;21185;-63
2022/09/19 08:38:13;;;;;;;4.75;3.33;;;;;;;12.82;58.64;93836.55;1627433;86;21181;-63
2022/09/19 08:40:45;;;;;;;3.05;2.85;;;;;;;12.95;58.93;93830.09;1593802;86;21078;-63
2022/09/19 08:43:18;;;;;;;6.50;5.62;;;;;;;13.12;58.42;93826.91;1601570;87;21055;-61
2022/09/19 08:46:19;;;;;;;4.40;4.00;;;;;;;13.29;57.88;93822.32;1613139;86;21017;-63
2022/09/19 08:49:25;;;;;;;2.47;2.27;;;;;;;13.48;58.17;93829.05;1605494;85;21006;-61
2022/09/19 08:52:05;;;;;;;2.33;2.12;;;;;;;13.60;57.33;93827.92;1623651;86;21269;-59
2022/09/19 08:54:41;;;;;;;4.08;2.72;;;;;;;13.71;56.44;93828.00;1612964;86;21197;-62
2022/09/19 08:57:27;;;;;;;4.67;2.35;;;;;;;13.80;56.43;93819.55;1619492;86;21571;-62
2022/09/19 09:00:00;;;;;;;5.40;4.62;;;;;;;13.83;56.18;93818.57;1619870;86;21077;-64
2022/09/19 09:02:42;;;;;;;1.80;1.70;;;;;;;13.85;54.84;93814.69;1622880;86;21543;-64
2022/09/19 09:05:19;;;;;;;1.70;1.57;;;;;;;13.85;55.13;93810.55;1629303;87;21429;-63
2022/09/19 09:08:16;;;;;;;2.42;2.22;;;;;;;13.83;55.04;93825.48;1597933;86;21012;-63
2022/09/19 09:10:55;;;;;;;1.25;1.17;;;;;;;13.80;54.85;93831.36;1588706;86;21082;-61
2022/09/19 09:13:50;;;;;;;1.50;1.40;;;;;;;13.81;54.44;93841.80;1579928;86;21961;-62
2022/09/19 09:16:25;;;;;;;1.20;1.20;;;;;;;13.83;54.58;93841.44;1610305;87;21106;-59
2022/09/19 09:19:09;;;;;;;2.40;2.20;;;;;;;13.96;54.69;93857.66;1608424;86;21281;-65
2022/09/19 09:22:03;;;;;;;2.80;1.30;;;;;;;14.08;54.34;93842.65;1612767;86;21572;-61
2022/09/19 09:24:39;;;;;;;3.67;2.12;;;;;;;14.26;55.29;93860.30;1610021;86;21031;-62
2022/09/19 09:27:23;;;;;;;1.10;1.10;;;;;;;14.36;54.01;93859.61;1563568;86;21066;-60
2022/09/19 09:29:54;;;;;;;2.08;1.57;;;;;;;14.36;53.40;93868.56;1617678;86;21595;-60
2022/09/19 09:32:30;;;;;;;2.55;2.30;;;;;;;14.44;54.25;93861.44;1623651;86;21334;-60
2022/09/19 09:35:13;;;;;;;2.60;2.40;;;;;;;14.55;53.73;93862.91;1605502;86;21152;-63
2022/09/19 09:37:44;;;;;;;1.80;1.57;;;;;;;14.57;53.32;93863.17;1591301;86;21607;-62
2022/09/19 09:43:09;;;;;;;3.60;3.30;;;;;;;14.45;52.28;93865.72;1623073;85;21099;-58
2022/09/19 09:45:48;;;;;;;2.30;1.75;;;;;;;14.29;53.13;93872.53;1640589;85;21488;-58
2022/09/19 09:48:34;;;;;;;1.47;1.37;;;;;;;14.19;52.83;93867.03;1631142;86;21011;-60
2022/09/19 09:51:31;;;;;;;1.37;1.27;;;;;;;14.07;53.79;93874.33;1655922;84;21068;-61
2022/09/19 09:57:43;;;;;;;2.33;2.12;;;;;;;13.70;54.61;93876.24;1631333;84;21475;-61
2022/09/19 10:03:35;;;;;;;3.05;2.27;;;;;;;13.47;55.12;93863.45;1650538;86;21199;-60
2022/09/19 10:06:19;;;;;;;2.37;1.90;;;;;;;13.42;55.26;93851.73;1638277;86;21113;-61
2022/09/19 10:09:01;;;;;;;3.13;2.83;;;;;;;13.42;55.66;93850.34;1599733;86;22294;-61
2022/09/19 10:11:48;;;;;;;7.30;5.90;;;;;;;13.43;55.58;93858.77;1641711;86;21471;-62
2022/09/19 10:14:28;;;;;;;9.00;4.50;;;;;;;13.73;55.34;93851.16;1620157;86;21875;-63
2022/09/19 10:17:01;;;;;;;7.75;6.05;;;;;;;14.37;55.07;93847.94;1591553;87;21144;-62
2022/09/19 10:19:41;;;;;;;16.82;12.28;;;;;;;14.91;53.87;93845.50;1621097;88;21031;-61
2022/09/19 10:22:14;;;;;;;9.55;8.13;;;;;;;15.29;52.50;93860.17;1622178;86;21109;-61
2022/09/19 10:24:51;;;;;;;15.18;9.43;;;;;;;15.65;52.36;93869.59;1628990;86;21482;-64
2022/09/19 10:27:26;;;;;;;8.78;6.85;;;;;;;15.93;51.15;93881.52;1632069;86;21152;-61
2022/09/19 10:30:00;;;;;;;6.55;5.10;;;;;;;15.92;49.60;93877.22;1664759;85;21061;-63
2022/09/19 10:32:40;;;;;;;9.63;8.10;;;;;;;15.74;49.88;93892.95;1660447;85;21085;-64
2022/09/19 10:35:37;;;;;;;6.92;6.22;;;;;;;15.53;49.94;93884.05;1674972;85;20978;-60
2022/09/19 10:38:13;;;;;;;21.62;14.78;;;;;;;15.17;50.15;93877.97;1670241;86;21593;-63
2022/09/19 10:40:57;;;;;;;7.95;6.25;;;;;;;14.93;50.92;93878.22;1637904;85;21652;-63
2022/09/19 10:43:42;;;;;;;4.55;3.70;;;;;;;14.81;51.98;93887.09;1667648;85;21082;-62
2022/09/19 10:46:16;;;;;;;6.15;5.58;;;;;;;14.66;51.09;93885.11;1643843;85;20981;-62
2022/09/19 10:48:58;;;;;;;14.95;10.53;;;;;;;14.45;52.19;93885.09;1674135;85;21007;-61
2022/09/19 10:51:37;;;;;;;4.53;3.37;;;;;;;14.41;52.81;93885.20;1614591;85;20989;-64
2022/09/19 10:54:11;;;;;;;8.38;1.90;;;;;;;14.39;52.62;93885.55;1611685;87;21361;-62
2022/09/19 10:56:41;;;;;;;4.37;2.42;;;;;;;14.28;52.80;93890.38;1609436;86;21025;-62
2022/09/19 10:59:25;;;;;;;2.37;2.10;;;;;;;14.14;53.61;93884.95;1622193;86;21092;-60
2022/09/19 11:02:27;;;;;;;4.83;4.40;;;;;;;13.95;54.20;93878.23;1657058;85;21029;-60
2022/09/19 11:05:02;;;;;;;2.50;1.90;;;;;;;13.78;55.18;93880.11;1657504;85;21017;-61
2022/09/19 11:07:56;;;;;;;1.80;1.70;;;;;;;13.72;55.10;93882.04;1667317;84;23150;-62
2022/09/19 11:10:41;;;;;;;2.10;1.90;;;;;;;13.67;54.40;93897.95;1638587;85;21482;-61
2022/09/19 11:13:15;;;;;;;2.30;2.10;;;;;;;13.57;55.03;93896.58;1670455;83;21481;-60
2022/09/19 11:16:10;;;;;;;4.53;2.12;;;;;;;13.47;56.00;93897.35;1658207;85;21085;-62
2022/09/19 11:18:44;;;;;;;2.80;2.60;;;;;;;13.43;56.66;93905.73;1641488;84;21060;-60
2022/09/19 11:21:28;;;;;;;2.47;2.27;;;;;;;13.36;56.75;93904.76;1663233;84;21346;-65
2022/09/19 11:24:07;;;;;;;8.53;7.60;;;;;;;13.26;57.79;93895.86;1671120;83;21122;-59
2022/09/19 11:26:53;;;;;;;2.30;2.10;;;;;;;13.15;59.05;93894.97;1680494;84;21026;-60
2022/09/19 11:29:41;;;;;;;1.72;1.62;;;;;;;13.05;59.91;93894.34;1665065;85;21041;-63
2022/09/19 11:32:23;;;;;;;1.90;1.80;;;;;;;12.91;60.38;93902.67;1660963;84;21069;-60
2022/09/19 11:35:28;;;;;;;2.22;1.72;;;;;;;12.75;60.83;93900.45;1637228;84;21625;-61
2022/09/19 11:38:34;;;;;;;2.55;2.30;;;;;;;12.67;61.69;93897.94;1652793;85;21070;-59
2022/09/19 11:41:43;;;;;;;2.90;2.55;;;;;;;12.68;61.86;93900.22;1648837;84;21049;-62
2022/09/19 11:44:42;;;;;;;4.87;3.50;;;;;;;12.72;61.62;93898.02;1677348;83;21143;-58
2022/09/19 11:47:22;;;;;;;3.55;3.22;;;;;;;12.76;61.80;93906.10;1656197;85;21033;-63
2022/09/19 11:50:32;;;;;;;3.42;2.87;;;;;;;12.72;61.86;93906.30;1643014;84;21464;-60
2022/09/19 11:53:30;;;;;;;4.47;3.77;;;;;;;12.70;61.41;93912.17;1666636;84;21022;-62
2022/09/19 11:56:23;;;;;;;3.55;2.75;;;;;;;12.65;62.27;93908.09;1672893;83;21089;-61
2022/09/19 11:59:08;;;;;;;5.60;4.30;;;;;;;12.64;61.79;93919.59;1608589;86;21138;-61
2022/09/19 12:01:53;;;;;;;2.87;2.45;;;;;;;12.55;62.06;93918.34;1613870;86;21353;-63
2022/09/19 12:04:34;;;;;;;3.33;2.65;;;;;;;12.49;62.24;93918.86;1617093;86;21126;-62
2022/09/19 12:07:32;;;;;;;3.40;3.08;;;;;;;12.43;63.20;93918.03;1619301;86;21619;-59
2022/09/19 12:10:18;;;;;;;3.92;2.80;;;;;;;12.45;63.08;93913.42;1636238;85;21089;-61
2022/09/19 12:12:51;;;;;;;3.55;3.25;;;;;;;12.52;64.22;93917.16;1617781;87;21088;-57
2022/09/19 12:15:25;;;;;;;10.18;9.10;;;;;;;12.57;64.37;93907.59;1613794;87;21599;-61
2022/09/19 12:18:08;;;;;;;5.50;3.52;;;;;;;12.62;64.34;93911.81;1618610;86;21681;-58
2022/09/19 12:20:47;;;;;;;3.85;2.22;;;;;;;12.72;64.27;93906.93;1632182;86;21052;-60
2022/09/19 12:26:24;;;;;;;2.77;2.58;;;;;;;12.81;63.15;93909.55;1616453;86;21049;-57
2022/09/19 12:29:15;;;;;;;2.80;2.25;;;;;;;12.88;64.01;93907.14;1617057;86;21216;-60
2022/09/19 12:31:40;;;;;;;2.27;2.00;;;;;;;12.96;63.70;93909.69;1592004;87;21243;-59
2022/09/19 12:34:29;;;;;;;2.50;2.30;;;;;;;13.03;62.33;93908.48;1615663;87;21091;-59